Pagina principale
METAR-TAF:

METAR-TAF

Aeroporti :

Melun, Francia

latitudine: 48-37N, longitudine: 002-41E, altezza: 95 m

Osservazione

Il bollettino è stato emesso 17 minuti fa, alle 18:00 UTC
Vento 10 kt da sud/sud-est
Temperature 8°C
Umidità 87%
Pressione 1003 hPa
Visibilità 10 km o più
Nubi sparse ad un'altezza di 2700 ft
Cielo coperto ad un'altezza di 3400 ft
pioggia debole

METAR: LFPM 211800Z AUTO 15010KT 9999 -RA SCT027 OVC034 08/06 Q1003

Ora: 19:17 (18:17 UTC)


TAF: mancante

Osservazioni e previsioni meteorologiche di più di 4000 aeroporti (messaggi METAR e TAF).

Le stazioni disponibili sono rappresentate dai dischi gialli e rossi sulla carta.

Puntare il mouse per vedere il nome della stazione.

Clicca sopra per visualizzare le osservazioni e previsioni meteorologiche.

Per cambiare la mappa : fare clic sui pulsanti verdi con una croce nera per ingrandire, il pulsante verde con un trattino per diminuire, o sulla freccia verde per le mappe adiacenti.


METAR-TAF: